sensor_id;sensor_type;location;lat;lon;timestamp;P1;durP1;ratioP1;P2;durP2;ratioP2
28343;SDS011;15597;50.914;6.638;2024-02-04T00:00:43;5.57;;;2.60;;
28343;SDS011;15597;50.914;6.638;2024-02-04T00:03:08;5.95;;;2.92;;
28343;SDS011;15597;50.914;6.638;2024-02-04T00:05:34;7.63;;;2.80;;
28343;SDS011;15597;50.914;6.638;2024-02-04T00:08:00;8.77;;;2.75;;
28343;SDS011;15597;50.914;6.638;2024-02-04T00:10:25;3.97;;;1.85;;
28343;SDS011;15597;50.914;6.638;2024-02-04T00:12:52;6.18;;;1.98;;
28343;SDS011;15597;50.914;6.638;2024-02-04T00:15:17;3.47;;;1.77;;
28343;SDS011;15597;50.914;6.638;2024-02-04T00:17:44;5.20;;;2.17;;
28343;SDS011;15597;50.914;6.638;2024-02-04T00:20:10;4.32;;;2.03;;
28343;SDS011;15597;50.914;6.638;2024-02-04T00:22:35;3.75;;;1.90;;
28343;SDS011;15597;50.914;6.638;2024-02-04T00:25:01;4.65;;;1.90;;
28343;SDS011;15597;50.914;6.638;2024-02-04T00:27:33;4.28;;;1.80;;
28343;SDS011;15597;50.914;6.638;2024-02-04T00:29:59;4.68;;;2.00;;
28343;SDS011;15597;50.914;6.638;2024-02-04T00:32:25;4.35;;;1.90;;
28343;SDS011;15597;50.914;6.638;2024-02-04T00:34:51;4.50;;;1.70;;
28343;SDS011;15597;50.914;6.638;2024-02-04T00:37:18;4.22;;;1.77;;
28343;SDS011;15597;50.914;6.638;2024-02-04T00:39:43;6.97;;;1.80;;
28343;SDS011;15597;50.914;6.638;2024-02-04T00:42:09;4.43;;;1.45;;
28343;SDS011;15597;50.914;6.638;2024-02-04T00:44:35;5.78;;;1.70;;
28343;SDS011;15597;50.914;6.638;2024-02-04T00:47:01;4.05;;;1.70;;
28343;SDS011;15597;50.914;6.638;2024-02-04T00:49:27;4.45;;;1.77;;
28343;SDS011;15597;50.914;6.638;2024-02-04T00:51:53;4.60;;;1.90;;
28343;SDS011;15597;50.914;6.638;2024-02-04T00:54:19;5.63;;;1.75;;
28343;SDS011;15597;50.914;6.638;2024-02-04T00:56:44;4.22;;;1.75;;
28343;SDS011;15597;50.914;6.638;2024-02-04T00:59:10;3.72;;;1.70;;
28343;SDS011;15597;50.914;6.638;2024-02-04T01:01:35;4.50;;;1.70;;
28343;SDS011;15597;50.914;6.638;2024-02-04T01:04:01;4.53;;;1.50;;
28343;SDS011;15597;50.914;6.638;2024-02-04T01:06:26;3.67;;;1.45;;
28343;SDS011;15597;50.914;6.638;2024-02-04T01:08:56;4.10;;;1.45;;
28343;SDS011;15597;50.914;6.638;2024-02-04T01:11:21;4.25;;;1.73;;
28343;SDS011;15597;50.914;6.638;2024-02-04T01:13:47;4.85;;;1.70;;
28343;SDS011;15597;50.914;6.638;2024-02-04T01:16:12;4.10;;;1.50;;
28343;SDS011;15597;50.914;6.638;2024-02-04T01:18:38;4.90;;;1.70;;
28343;SDS011;15597;50.914;6.638;2024-02-04T01:21:04;4.35;;;1.50;;
28343;SDS011;15597;50.914;6.638;2024-02-04T01:23:30;5.03;;;1.60;;
28343;SDS011;15597;50.914;6.638;2024-02-04T01:25:55;3.45;;;1.58;;
28343;SDS011;15597;50.914;6.638;2024-02-04T01:28:21;4.10;;;1.60;;
28343;SDS011;15597;50.914;6.638;2024-02-04T01:30:47;3.40;;;1.50;;
28343;SDS011;15597;50.914;6.638;2024-02-04T01:33:12;4.20;;;1.48;;
28343;SDS011;15597;50.914;6.638;2024-02-04T01:35:38;2.60;;;1.33;;
28343;SDS011;15597;50.914;6.638;2024-02-04T01:38:03;2.92;;;1.23;;
28343;SDS011;15597;50.914;6.638;2024-02-04T01:40:29;5.25;;;1.70;;
28343;SDS011;15597;50.914;6.638;2024-02-04T01:42:54;5.53;;;1.40;;
28343;SDS011;15597;50.914;6.638;2024-02-04T01:45:21;6.05;;;1.67;;
28343;SDS011;15597;50.914;6.638;2024-02-04T01:47:47;2.95;;;1.10;;
28343;SDS011;15597;50.914;6.638;2024-02-04T01:50:14;4.05;;;1.20;;
28343;SDS011;15597;50.914;6.638;2024-02-04T01:52:40;3.83;;;1.27;;
28343;SDS011;15597;50.914;6.638;2024-02-04T01:55:08;3.78;;;1.48;;
28343;SDS011;15597;50.914;6.638;2024-02-04T01:57:34;4.05;;;1.20;;
28343;SDS011;15597;50.914;6.638;2024-02-04T02:00:02;2.00;;;1.00;;
28343;SDS011;15597;50.914;6.638;2024-02-04T02:02:31;3.08;;;1.05;;
28343;SDS011;15597;50.914;6.638;2024-02-04T02:04:59;4.72;;;1.00;;
28343;SDS011;15597;50.914;6.638;2024-02-04T02:07:25;3.75;;;1.27;;
28343;SDS011;15597;50.914;6.638;2024-02-04T02:09:52;3.92;;;1.13;;
28343;SDS011;15597;50.914;6.638;2024-02-04T02:12:30;3.05;;;1.10;;
28343;SDS011;15597;50.914;6.638;2024-02-04T02:15:10;3.75;;;1.17;;
28343;SDS011;15597;50.914;6.638;2024-02-04T02:17:41;3.25;;;1.25;;
28343;SDS011;15597;50.914;6.638;2024-02-04T02:20:19;3.97;;;1.10;;
28343;SDS011;15597;50.914;6.638;2024-02-04T02:22:49;4.90;;;1.77;;
28343;SDS011;15597;50.914;6.638;2024-02-04T02:25:19;2.65;;;1.00;;
28343;SDS011;15597;50.914;6.638;2024-02-04T02:27:48;2.38;;;0.90;;
28343;SDS011;15597;50.914;6.638;2024-02-04T02:30:15;2.72;;;1.10;;
28343;SDS011;15597;50.914;6.638;2024-02-04T02:32:42;3.10;;;0.93;;
28343;SDS011;15597;50.914;6.638;2024-02-04T02:35:15;2.72;;;1.08;;
28343;SDS011;15597;50.914;6.638;2024-02-04T02:40:40;2.70;;;1.00;;
28343;SDS011;15597;50.914;6.638;2024-02-04T02:43:10;3.42;;;1.20;;
28343;SDS011;15597;50.914;6.638;2024-02-04T02:45:41;2.92;;;1.10;;
28343;SDS011;15597;50.914;6.638;2024-02-04T02:48:07;3.25;;;0.93;;
28343;SDS011;15597;50.914;6.638;2024-02-04T02:50:35;2.67;;;1.10;;
28343;SDS011;15597;50.914;6.638;2024-02-04T02:53:01;4.28;;;1.00;;
28343;SDS011;15597;50.914;6.638;2024-02-04T02:55:27;4.10;;;1.00;;
28343;SDS011;15597;50.914;6.638;2024-02-04T02:57:52;2.40;;;1.10;;
28343;SDS011;15597;50.914;6.638;2024-02-04T03:00:18;2.75;;;1.10;;
28343;SDS011;15597;50.914;6.638;2024-02-04T03:02:44;2.58;;;1.15;;
28343;SDS011;15597;50.914;6.638;2024-02-04T03:05:09;3.10;;;1.10;;
28343;SDS011;15597;50.914;6.638;2024-02-04T03:07:35;2.65;;;0.90;;
28343;SDS011;15597;50.914;6.638;2024-02-04T03:10:01;2.42;;;1.10;;
28343;SDS011;15597;50.914;6.638;2024-02-04T03:12:26;2.33;;;1.05;;
28343;SDS011;15597;50.914;6.638;2024-02-04T03:14:52;4.13;;;1.10;;
28343;SDS011;15597;50.914;6.638;2024-02-04T03:17:17;3.28;;;1.00;;
28343;SDS011;15597;50.914;6.638;2024-02-04T03:19:47;2.47;;;1.05;;
28343;SDS011;15597;50.914;6.638;2024-02-04T03:22:13;2.38;;;1.05;;
28343;SDS011;15597;50.914;6.638;2024-02-04T03:24:38;2.38;;;1.10;;
28343;SDS011;15597;50.914;6.638;2024-02-04T03:27:04;4.53;;;1.30;;
28343;SDS011;15597;50.914;6.638;2024-02-04T03:29:29;3.55;;;1.20;;
28343;SDS011;15597;50.914;6.638;2024-02-04T03:31:55;2.58;;;0.93;;
28343;SDS011;15597;50.914;6.638;2024-02-04T03:34:21;3.92;;;1.30;;
28343;SDS011;15597;50.914;6.638;2024-02-04T03:36:47;2.63;;;1.20;;
28343;SDS011;15597;50.914;6.638;2024-02-04T03:39:12;3.10;;;1.48;;
28343;SDS011;15597;50.914;6.638;2024-02-04T03:41:38;3.00;;;1.30;;
28343;SDS011;15597;50.914;6.638;2024-02-04T03:44:04;2.65;;;1.23;;
28343;SDS011;15597;50.914;6.638;2024-02-04T03:46:29;2.50;;;1.05;;
28343;SDS011;15597;50.914;6.638;2024-02-04T03:48:55;3.50;;;1.10;;
28343;SDS011;15597;50.914;6.638;2024-02-04T03:51:21;2.90;;;1.20;;
28343;SDS011;15597;50.914;6.638;2024-02-04T03:53:47;3.13;;;1.38;;
28343;SDS011;15597;50.914;6.638;2024-02-04T03:56:15;3.42;;;1.27;;
28343;SDS011;15597;50.914;6.638;2024-02-04T03:58:40;3.50;;;1.30;;
28343;SDS011;15597;50.914;6.638;2024-02-04T04:01:09;2.92;;;1.17;;
28343;SDS011;15597;50.914;6.638;2024-02-04T04:03:36;3.83;;;1.50;;
28343;SDS011;15597;50.914;6.638;2024-02-04T04:06:03;3.15;;;1.30;;
28343;SDS011;15597;50.914;6.638;2024-02-04T04:08:29;4.28;;;1.40;;
28343;SDS011;15597;50.914;6.638;2024-02-04T04:10:55;3.70;;;1.33;;
28343;SDS011;15597;50.914;6.638;2024-02-04T04:13:20;3.05;;;1.23;;
28343;SDS011;15597;50.914;6.638;2024-02-04T04:15:46;4.07;;;1.35;;
28343;SDS011;15597;50.914;6.638;2024-02-04T04:18:12;3.75;;;1.05;;
28343;SDS011;15597;50.914;6.638;2024-02-04T04:20:38;4.78;;;1.10;;
28343;SDS011;15597;50.914;6.638;2024-02-04T04:23:04;2.53;;;1.35;;
28343;SDS011;15597;50.914;6.638;2024-02-04T04:25:29;2.03;;;0.90;;
28343;SDS011;15597;50.914;6.638;2024-02-04T04:27:55;3.10;;;1.02;;
28343;SDS011;15597;50.914;6.638;2024-02-04T04:30:22;2.38;;;1.08;;
28343;SDS011;15597;50.914;6.638;2024-02-04T04:32:48;3.15;;;1.20;;
28343;SDS011;15597;50.914;6.638;2024-02-04T04:35:14;6.88;;;1.20;;
28343;SDS011;15597;50.914;6.638;2024-02-04T04:37:39;3.05;;;1.10;;
28343;SDS011;15597;50.914;6.638;2024-02-04T04:40:05;3.42;;;1.08;;
28343;SDS011;15597;50.914;6.638;2024-02-04T04:42:31;2.00;;;0.90;;
28343;SDS011;15597;50.914;6.638;2024-02-04T04:44:57;4.13;;;1.02;;
28343;SDS011;15597;50.914;6.638;2024-02-04T04:47:22;3.17;;;1.27;;
28343;SDS011;15597;50.914;6.638;2024-02-04T04:49:48;2.47;;;0.93;;
28343;SDS011;15597;50.914;6.638;2024-02-04T04:52:13;3.38;;;1.60;;
28343;SDS011;15597;50.914;6.638;2024-02-04T04:54:39;4.10;;;1.50;;
28343;SDS011;15597;50.914;6.638;2024-02-04T04:57:05;3.28;;;1.50;;
28343;SDS011;15597;50.914;6.638;2024-02-04T04:59:31;4.18;;;1.85;;
28343;SDS011;15597;50.914;6.638;2024-02-04T05:01:56;2.80;;;1.20;;
28343;SDS011;15597;50.914;6.638;2024-02-04T05:04:22;3.22;;;1.30;;
28343;SDS011;15597;50.914;6.638;2024-02-04T05:06:51;5.22;;;1.50;;
28343;SDS011;15597;50.914;6.638;2024-02-04T05:09:16;3.28;;;1.45;;
28343;SDS011;15597;50.914;6.638;2024-02-04T05:11:42;2.83;;;0.90;;
28343;SDS011;15597;50.914;6.638;2024-02-04T05:14:08;4.30;;;1.42;;
28343;SDS011;15597;50.914;6.638;2024-02-04T05:16:33;3.20;;;1.10;;
28343;SDS011;15597;50.914;6.638;2024-02-04T05:19:00;3.15;;;1.25;;
28343;SDS011;15597;50.914;6.638;2024-02-04T05:21:27;3.63;;;1.70;;
28343;SDS011;15597;50.914;6.638;2024-02-04T05:23:52;3.65;;;1.77;;
28343;SDS011;15597;50.914;6.638;2024-02-04T05:26:18;3.05;;;1.33;;
28343;SDS011;15597;50.914;6.638;2024-02-04T05:28:44;2.70;;;1.17;;
28343;SDS011;15597;50.914;6.638;2024-02-04T05:31:10;2.42;;;1.00;;
28343;SDS011;15597;50.914;6.638;2024-02-04T05:33:35;5.38;;;1.20;;
28343;SDS011;15597;50.914;6.638;2024-02-04T05:36:01;3.00;;;1.20;;
28343;SDS011;15597;50.914;6.638;2024-02-04T05:38:26;6.43;;;1.88;;
28343;SDS011;15597;50.914;6.638;2024-02-04T05:40:51;2.22;;;1.00;;
28343;SDS011;15597;50.914;6.638;2024-02-04T05:43:17;5.60;;;1.60;;
28343;SDS011;15597;50.914;6.638;2024-02-04T05:45:42;5.30;;;1.73;;
28343;SDS011;15597;50.914;6.638;2024-02-04T05:48:08;2.83;;;1.23;;
28343;SDS011;15597;50.914;6.638;2024-02-04T05:50:34;3.55;;;1.30;;
28343;SDS011;15597;50.914;6.638;2024-02-04T05:53:00;3.10;;;1.40;;
28343;SDS011;15597;50.914;6.638;2024-02-04T05:55:26;2.40;;;1.00;;
28343;SDS011;15597;50.914;6.638;2024-02-04T05:57:51;2.60;;;1.02;;
28343;SDS011;15597;50.914;6.638;2024-02-04T06:00:17;3.10;;;1.05;;
28343;SDS011;15597;50.914;6.638;2024-02-04T06:02:43;3.30;;;1.30;;
28343;SDS011;15597;50.914;6.638;2024-02-04T06:05:09;2.83;;;1.30;;
28343;SDS011;15597;50.914;6.638;2024-02-04T06:07:35;3.70;;;1.13;;
28343;SDS011;15597;50.914;6.638;2024-02-04T06:10:00;3.72;;;1.48;;
28343;SDS011;15597;50.914;6.638;2024-02-04T06:12:28;2.28;;;1.10;;
28343;SDS011;15597;50.914;6.638;2024-02-04T06:14:54;2.28;;;1.10;;
28343;SDS011;15597;50.914;6.638;2024-02-04T06:17:20;4.07;;;1.55;;
28343;SDS011;15597;50.914;6.638;2024-02-04T06:19:46;3.08;;;1.33;;
28343;SDS011;15597;50.914;6.638;2024-02-04T06:22:11;2.58;;;1.20;;
28343;SDS011;15597;50.914;6.638;2024-02-04T06:24:37;3.40;;;1.13;;
28343;SDS011;15597;50.914;6.638;2024-02-04T06:27:04;3.65;;;1.20;;
28343;SDS011;15597;50.914;6.638;2024-02-04T06:29:30;4.15;;;1.40;;
28343;SDS011;15597;50.914;6.638;2024-02-04T06:31:55;3.40;;;1.30;;
28343;SDS011;15597;50.914;6.638;2024-02-04T06:34:21;2.70;;;1.05;;
28343;SDS011;15597;50.914;6.638;2024-02-04T06:36:46;3.92;;;1.48;;
28343;SDS011;15597;50.914;6.638;2024-02-04T06:39:12;3.15;;;1.00;;
28343;SDS011;15597;50.914;6.638;2024-02-04T06:41:38;3.10;;;1.10;;
28343;SDS011;15597;50.914;6.638;2024-02-04T06:44:04;2.35;;;0.90;;
28343;SDS011;15597;50.914;6.638;2024-02-04T06:46:29;1.67;;;0.75;;
28343;SDS011;15597;50.914;6.638;2024-02-04T06:48:55;1.98;;;0.90;;
28343;SDS011;15597;50.914;6.638;2024-02-04T06:51:21;2.00;;;0.80;;
28343;SDS011;15597;50.914;6.638;2024-02-04T06:53:47;2.97;;;0.80;;
28343;SDS011;15597;50.914;6.638;2024-02-04T06:56:13;2.58;;;0.70;;
28343;SDS011;15597;50.914;6.638;2024-02-04T06:58:39;1.42;;;0.70;;
28343;SDS011;15597;50.914;6.638;2024-02-04T07:01:05;1.83;;;0.75;;
28343;SDS011;15597;50.914;6.638;2024-02-04T07:03:31;2.50;;;0.80;;
28343;SDS011;15597;50.914;6.638;2024-02-04T07:05:58;2.28;;;1.00;;
28343;SDS011;15597;50.914;6.638;2024-02-04T07:08:24;2.38;;;0.82;;
28343;SDS011;15597;50.914;6.638;2024-02-04T07:10:49;2.05;;;0.88;;
28343;SDS011;15597;50.914;6.638;2024-02-04T07:13:15;3.20;;;1.00;;
28343;SDS011;15597;50.914;6.638;2024-02-04T07:15:41;1.80;;;0.80;;
28343;SDS011;15597;50.914;6.638;2024-02-04T07:18:06;2.10;;;0.77;;
28343;SDS011;15597;50.914;6.638;2024-02-04T07:20:32;2.33;;;0.68;;
28343;SDS011;15597;50.914;6.638;2024-02-04T07:22:57;3.15;;;0.70;;
28343;SDS011;15597;50.914;6.638;2024-02-04T07:25:23;3.13;;;1.13;;
28343;SDS011;15597;50.914;6.638;2024-02-04T07:27:49;1.83;;;0.70;;
28343;SDS011;15597;50.914;6.638;2024-02-04T07:30:14;2.30;;;0.80;;
28343;SDS011;15597;50.914;6.638;2024-02-04T07:32:40;1.63;;;0.80;;
28343;SDS011;15597;50.914;6.638;2024-02-04T07:35:05;2.25;;;1.00;;
28343;SDS011;15597;50.914;6.638;2024-02-04T07:37:31;2.00;;;0.98;;
28343;SDS011;15597;50.914;6.638;2024-02-04T07:39:57;1.83;;;0.80;;
28343;SDS011;15597;50.914;6.638;2024-02-04T07:42:24;2.15;;;0.80;;
28343;SDS011;15597;50.914;6.638;2024-02-04T07:44:49;4.18;;;2.15;;
28343;SDS011;15597;50.914;6.638;2024-02-04T07:47:14;3.50;;;1.30;;
28343;SDS011;15597;50.914;6.638;2024-02-04T07:49:41;2.25;;;1.00;;
28343;SDS011;15597;50.914;6.638;2024-02-04T07:52:06;1.90;;;0.90;;
28343;SDS011;15597;50.914;6.638;2024-02-04T07:54:32;2.47;;;1.20;;
28343;SDS011;15597;50.914;6.638;2024-02-04T07:56:59;4.40;;;0.93;;
28343;SDS011;15597;50.914;6.638;2024-02-04T07:59:25;2.55;;;1.00;;
28343;SDS011;15597;50.914;6.638;2024-02-04T08:01:50;3.67;;;1.42;;
28343;SDS011;15597;50.914;6.638;2024-02-04T08:04:16;4.25;;;1.00;;
28343;SDS011;15597;50.914;6.638;2024-02-04T08:06:41;3.75;;;1.00;;
28343;SDS011;15597;50.914;6.638;2024-02-04T08:09:07;2.55;;;0.90;;
28343;SDS011;15597;50.914;6.638;2024-02-04T08:11:33;1.98;;;1.00;;
28343;SDS011;15597;50.914;6.638;2024-02-04T08:13:59;2.10;;;0.75;;
28343;SDS011;15597;50.914;6.638;2024-02-04T08:16:25;2.17;;;0.88;;
28343;SDS011;15597;50.914;6.638;2024-02-04T08:18:51;2.72;;;1.30;;
28343;SDS011;15597;50.914;6.638;2024-02-04T08:21:16;3.05;;;1.25;;
28343;SDS011;15597;50.914;6.638;2024-02-04T08:23:42;2.08;;;0.90;;
28343;SDS011;15597;50.914;6.638;2024-02-04T08:26:07;2.60;;;1.00;;
28343;SDS011;15597;50.914;6.638;2024-02-04T08:28:34;2.05;;;0.93;;
28343;SDS011;15597;50.914;6.638;2024-02-04T08:30:59;2.30;;;1.00;;
28343;SDS011;15597;50.914;6.638;2024-02-04T08:33:25;2.78;;;1.02;;
28343;SDS011;15597;50.914;6.638;2024-02-04T08:35:50;2.28;;;0.90;;
28343;SDS011;15597;50.914;6.638;2024-02-04T08:38:16;2.70;;;1.30;;
28343;SDS011;15597;50.914;6.638;2024-02-04T08:40:41;2.65;;;1.20;;
28343;SDS011;15597;50.914;6.638;2024-02-04T08:43:07;3.83;;;1.13;;
28343;SDS011;15597;50.914;6.638;2024-02-04T08:45:32;2.33;;;1.10;;
28343;SDS011;15597;50.914;6.638;2024-02-04T08:47:58;3.72;;;1.15;;
28343;SDS011;15597;50.914;6.638;2024-02-04T08:50:23;2.72;;;1.00;;
28343;SDS011;15597;50.914;6.638;2024-02-04T08:52:49;4.72;;;1.08;;
28343;SDS011;15597;50.914;6.638;2024-02-04T08:55:14;2.85;;;1.05;;
28343;SDS011;15597;50.914;6.638;2024-02-04T08:57:40;1.70;;;0.80;;
28343;SDS011;15597;50.914;6.638;2024-02-04T09:00:06;2.15;;;0.95;;
28343;SDS011;15597;50.914;6.638;2024-02-04T09:02:36;2.70;;;0.88;;
28343;SDS011;15597;50.914;6.638;2024-02-04T09:05:02;2.95;;;1.08;;
28343;SDS011;15597;50.914;6.638;2024-02-04T09:07:28;1.13;;;0.60;;
28343;SDS011;15597;50.914;6.638;2024-02-04T09:09:53;1.45;;;0.60;;
28343;SDS011;15597;50.914;6.638;2024-02-04T09:12:19;2.97;;;0.80;;
28343;SDS011;15597;50.914;6.638;2024-02-04T09:14:44;2.25;;;0.77;;
28343;SDS011;15597;50.914;6.638;2024-02-04T09:17:10;1.42;;;0.70;;
28343;SDS011;15597;50.914;6.638;2024-02-04T09:19:35;3.03;;;0.95;;
28343;SDS011;15597;50.914;6.638;2024-02-04T09:22:01;2.25;;;0.80;;
28343;SDS011;15597;50.914;6.638;2024-02-04T09:24:27;2.38;;;0.93;;
28343;SDS011;15597;50.914;6.638;2024-02-04T09:26:53;2.95;;;1.00;;
28343;SDS011;15597;50.914;6.638;2024-02-04T09:29:19;1.98;;;0.80;;
28343;SDS011;15597;50.914;6.638;2024-02-04T09:31:45;1.23;;;0.50;;
28343;SDS011;15597;50.914;6.638;2024-02-04T09:34:11;2.47;;;0.90;;
28343;SDS011;15597;50.914;6.638;2024-02-04T09:36:36;1.67;;;0.80;;
28343;SDS011;15597;50.914;6.638;2024-02-04T09:39:02;2.83;;;1.02;;
28343;SDS011;15597;50.914;6.638;2024-02-04T09:41:28;2.05;;;0.90;;
28343;SDS011;15597;50.914;6.638;2024-02-04T09:43:54;2.25;;;0.80;;
28343;SDS011;15597;50.914;6.638;2024-02-04T09:46:20;2.65;;;0.98;;
28343;SDS011;15597;50.914;6.638;2024-02-04T09:48:46;1.88;;;0.70;;
28343;SDS011;15597;50.914;6.638;2024-02-04T09:51:13;2.17;;;0.85;;
28343;SDS011;15597;50.914;6.638;2024-02-04T09:53:41;1.67;;;0.75;;
28343;SDS011;15597;50.914;6.638;2024-02-04T09:56:09;2.67;;;1.20;;
28343;SDS011;15597;50.914;6.638;2024-02-04T09:58:36;2.35;;;0.95;;
28343;SDS011;15597;50.914;6.638;2024-02-04T10:01:04;2.70;;;1.08;;
28343;SDS011;15597;50.914;6.638;2024-02-04T10:03:30;2.22;;;0.80;;
28343;SDS011;15597;50.914;6.638;2024-02-04T10:05:56;3.13;;;1.20;;
28343;SDS011;15597;50.914;6.638;2024-02-04T10:08:21;1.90;;;0.80;;
28343;SDS011;15597;50.914;6.638;2024-02-04T10:10:47;2.92;;;0.90;;
28343;SDS011;15597;50.914;6.638;2024-02-04T10:13:13;2.80;;;0.98;;
28343;SDS011;15597;50.914;6.638;2024-02-04T10:15:39;2.63;;;0.98;;
28343;SDS011;15597;50.914;6.638;2024-02-04T10:18:07;2.70;;;1.00;;
28343;SDS011;15597;50.914;6.638;2024-02-04T10:20:34;2.63;;;1.00;;
28343;SDS011;15597;50.914;6.638;2024-02-04T10:23:00;3.08;;;1.15;;
28343;SDS011;15597;50.914;6.638;2024-02-04T10:25:25;2.20;;;0.90;;
28343;SDS011;15597;50.914;6.638;2024-02-04T10:27:52;3.13;;;1.00;;
28343;SDS011;15597;50.914;6.638;2024-02-04T10:30:18;4.72;;;1.75;;
28343;SDS011;15597;50.914;6.638;2024-02-04T10:32:46;4.95;;;1.67;;
28343;SDS011;15597;50.914;6.638;2024-02-04T10:35:20;5.18;;;1.70;;
28343;SDS011;15597;50.914;6.638;2024-02-04T10:37:48;7.70;;;2.55;;
28343;SDS011;15597;50.914;6.638;2024-02-04T10:40:17;3.30;;;1.20;;
28343;SDS011;15597;50.914;6.638;2024-02-04T10:42:43;4.10;;;0.77;;
28343;SDS011;15597;50.914;6.638;2024-02-04T10:45:10;3.00;;;1.10;;
28343;SDS011;15597;50.914;6.638;2024-02-04T10:47:39;2.05;;;0.90;;
28343;SDS011;15597;50.914;6.638;2024-02-04T10:50:05;2.13;;;0.80;;
28343;SDS011;15597;50.914;6.638;2024-02-04T10:52:38;2.97;;;0.90;;
28343;SDS011;15597;50.914;6.638;2024-02-04T10:55:08;1.48;;;0.60;;
28343;SDS011;15597;50.914;6.638;2024-02-04T10:57:36;1.50;;;0.70;;
28343;SDS011;15597;50.914;6.638;2024-02-04T11:00:03;2.42;;;0.80;;
28343;SDS011;15597;50.914;6.638;2024-02-04T11:02:36;2.10;;;0.70;;
28343;SDS011;15597;50.914;6.638;2024-02-04T11:05:03;2.08;;;0.80;;
28343;SDS011;15597;50.914;6.638;2024-02-04T11:07:33;1.27;;;0.70;;
28343;SDS011;15597;50.914;6.638;2024-02-04T11:10:02;2.70;;;0.65;;
28343;SDS011;15597;50.914;6.638;2024-02-04T11:12:28;2.15;;;0.70;;
28343;SDS011;15597;50.914;6.638;2024-02-04T11:14:56;2.63;;;0.75;;
28343;SDS011;15597;50.914;6.638;2024-02-04T11:22:44;2.35;;;0.85;;
28343;SDS011;15597;50.914;6.638;2024-02-04T11:28:09;4.70;;;1.40;;
28343;SDS011;15597;50.914;6.638;2024-02-04T11:30:36;3.50;;;1.30;;
28343;SDS011;15597;50.914;6.638;2024-02-04T11:33:05;4.25;;;1.30;;
28343;SDS011;15597;50.914;6.638;2024-02-04T11:35:32;3.53;;;1.20;;
28343;SDS011;15597;50.914;6.638;2024-02-04T11:37:58;3.58;;;1.20;;
28343;SDS011;15597;50.914;6.638;2024-02-04T11:40:30;3.00;;;1.05;;
28343;SDS011;15597;50.914;6.638;2024-02-04T11:43:03;2.17;;;0.80;;
28343;SDS011;15597;50.914;6.638;2024-02-04T11:45:32;2.58;;;0.98;;
28343;SDS011;15597;50.914;6.638;2024-02-04T11:48:06;3.17;;;1.15;;
28343;SDS011;15597;50.914;6.638;2024-02-04T11:50:32;3.50;;;1.50;;
28343;SDS011;15597;50.914;6.638;2024-02-04T11:53:16;2.83;;;1.00;;
28343;SDS011;15597;50.914;6.638;2024-02-04T11:55:42;2.78;;;1.10;;
28343;SDS011;15597;50.914;6.638;2024-02-04T11:58:09;3.00;;;0.95;;
28343;SDS011;15597;50.914;6.638;2024-02-04T12:00:36;3.90;;;0.95;;
28343;SDS011;15597;50.914;6.638;2024-02-04T12:03:02;1.95;;;1.00;;
28343;SDS011;15597;50.914;6.638;2024-02-04T12:05:32;2.53;;;1.00;;
28343;SDS011;15597;50.914;6.638;2024-02-04T12:08:05;3.22;;;1.20;;
28343;SDS011;15597;50.914;6.638;2024-02-04T12:10:32;2.67;;;1.00;;
28343;SDS011;15597;50.914;6.638;2024-02-04T12:13:00;2.65;;;0.82;;
28343;SDS011;15597;50.914;6.638;2024-02-04T12:15:28;2.83;;;0.90;;
28343;SDS011;15597;50.914;6.638;2024-02-04T12:17:54;2.72;;;0.90;;
28343;SDS011;15597;50.914;6.638;2024-02-04T12:20:19;5.43;;;1.40;;
28343;SDS011;15597;50.914;6.638;2024-02-04T12:22:45;5.32;;;1.17;;
28343;SDS011;15597;50.914;6.638;2024-02-04T12:25:11;2.05;;;0.88;;
28343;SDS011;15597;50.914;6.638;2024-02-04T12:27:37;2.33;;;1.00;;
28343;SDS011;15597;50.914;6.638;2024-02-04T12:30:03;2.22;;;0.77;;
28343;SDS011;15597;50.914;6.638;2024-02-04T12:32:30;2.58;;;0.95;;
28343;SDS011;15597;50.914;6.638;2024-02-04T12:34:56;2.20;;;0.80;;
28343;SDS011;15597;50.914;6.638;2024-02-04T12:37:22;1.60;;;0.75;;
28343;SDS011;15597;50.914;6.638;2024-02-04T12:39:48;2.20;;;0.85;;
28343;SDS011;15597;50.914;6.638;2024-02-04T12:42:16;2.63;;;1.00;;
28343;SDS011;15597;50.914;6.638;2024-02-04T12:44:49;3.40;;;1.15;;
28343;SDS011;15597;50.914;6.638;2024-02-04T12:47:19;3.00;;;1.00;;
28343;SDS011;15597;50.914;6.638;2024-02-04T12:49:45;2.38;;;0.93;;
28343;SDS011;15597;50.914;6.638;2024-02-04T12:52:11;2.60;;;1.00;;
28343;SDS011;15597;50.914;6.638;2024-02-04T12:54:41;2.42;;;0.95;;
28343;SDS011;15597;50.914;6.638;2024-02-04T12:57:09;2.85;;;0.85;;
28343;SDS011;15597;50.914;6.638;2024-02-04T12:59:38;3.33;;;1.10;;
28343;SDS011;15597;50.914;6.638;2024-02-04T13:02:05;4.78;;;1.15;;
28343;SDS011;15597;50.914;6.638;2024-02-04T13:04:36;2.80;;;1.20;;
28343;SDS011;15597;50.914;6.638;2024-02-04T13:07:09;2.88;;;1.13;;
28343;SDS011;15597;50.914;6.638;2024-02-04T13:09:37;4.00;;;1.52;;
28343;SDS011;15597;50.914;6.638;2024-02-04T13:12:03;2.80;;;1.02;;
28343;SDS011;15597;50.914;6.638;2024-02-04T13:14:31;2.45;;;0.93;;
28343;SDS011;15597;50.914;6.638;2024-02-04T13:16:57;2.53;;;0.95;;
28343;SDS011;15597;50.914;6.638;2024-02-04T13:19:23;4.90;;;1.27;;
28343;SDS011;15597;50.914;6.638;2024-02-04T13:21:48;2.58;;;1.00;;
28343;SDS011;15597;50.914;6.638;2024-02-04T13:24:14;2.83;;;1.00;;
28343;SDS011;15597;50.914;6.638;2024-02-04T13:26:39;4.20;;;1.05;;
28343;SDS011;15597;50.914;6.638;2024-02-04T13:29:05;2.20;;;1.00;;
28343;SDS011;15597;50.914;6.638;2024-02-04T13:31:30;2.50;;;1.00;;
28343;SDS011;15597;50.914;6.638;2024-02-04T13:33:56;1.75;;;0.82;;
28343;SDS011;15597;50.914;6.638;2024-02-04T13:36:22;1.85;;;0.80;;
28343;SDS011;15597;50.914;6.638;2024-02-04T13:38:48;2.63;;;1.23;;
28343;SDS011;15597;50.914;6.638;2024-02-04T13:41:14;2.80;;;1.30;;
28343;SDS011;15597;50.914;6.638;2024-02-04T13:43:40;2.28;;;0.93;;
28343;SDS011;15597;50.914;6.638;2024-02-04T13:46:05;1.63;;;0.77;;
28343;SDS011;15597;50.914;6.638;2024-02-04T13:48:34;2.58;;;0.82;;
28343;SDS011;15597;50.914;6.638;2024-02-04T13:51:00;2.28;;;0.82;;
28343;SDS011;15597;50.914;6.638;2024-02-04T13:53:25;1.80;;;0.80;;
28343;SDS011;15597;50.914;6.638;2024-02-04T13:55:52;2.45;;;0.98;;
28343;SDS011;15597;50.914;6.638;2024-02-04T13:58:18;1.88;;;0.75;;
28343;SDS011;15597;50.914;6.638;2024-02-04T14:00:44;3.08;;;0.70;;
28343;SDS011;15597;50.914;6.638;2024-02-04T14:03:09;2.25;;;0.90;;
28343;SDS011;15597;50.914;6.638;2024-02-04T14:05:38;2.58;;;1.08;;
28343;SDS011;15597;50.914;6.638;2024-02-04T14:08:05;2.20;;;0.80;;
28343;SDS011;15597;50.914;6.638;2024-02-04T14:10:31;1.95;;;0.80;;
28343;SDS011;15597;50.914;6.638;2024-02-04T14:12:57;2.38;;;0.93;;
28343;SDS011;15597;50.914;6.638;2024-02-04T14:15:23;2.08;;;0.70;;
28343;SDS011;15597;50.914;6.638;2024-02-04T14:17:48;2.13;;;0.70;;
28343;SDS011;15597;50.914;6.638;2024-02-04T14:20:14;1.50;;;0.70;;
28343;SDS011;15597;50.914;6.638;2024-02-04T14:22:40;2.47;;;1.00;;
28343;SDS011;15597;50.914;6.638;2024-02-04T14:25:06;2.80;;;1.00;;
28343;SDS011;15597;50.914;6.638;2024-02-04T14:27:32;1.33;;;0.70;;
28343;SDS011;15597;50.914;6.638;2024-02-04T14:29:57;1.88;;;0.80;;
28343;SDS011;15597;50.914;6.638;2024-02-04T14:32:23;2.03;;;0.85;;
28343;SDS011;15597;50.914;6.638;2024-02-04T14:34:49;3.38;;;1.27;;
28343;SDS011;15597;50.914;6.638;2024-02-04T14:37:15;2.97;;;1.30;;
28343;SDS011;15597;50.914;6.638;2024-02-04T14:39:41;2.63;;;1.20;;
28343;SDS011;15597;50.914;6.638;2024-02-04T14:42:10;3.00;;;1.13;;
28343;SDS011;15597;50.914;6.638;2024-02-04T14:44:35;2.65;;;0.90;;
28343;SDS011;15597;50.914;6.638;2024-02-04T14:47:01;2.38;;;0.80;;
28343;SDS011;15597;50.914;6.638;2024-02-04T14:49:26;2.63;;;1.20;;
28343;SDS011;15597;50.914;6.638;2024-02-04T14:51:52;3.05;;;0.90;;
28343;SDS011;15597;50.914;6.638;2024-02-04T14:54:18;2.33;;;1.25;;